Time;durP1;ratioP1;P1;durP2;ratioP2;P2;SDS_P1;SDS_P2;PMS_P1;PMS_P2;Temp;Humidity;BMP_temperature;BMP_pressure;BME280_temperature;BME280_humidity;BME280_pressure;Samples;Min_cycle;Max_cycle;Signal;HPM_P1;HPM_P2
2020/12/04 00:00:15;;;;;;;23.73;10.18;;;-3.60;88.00;;;;;;5074750;28;20095;-85
2020/12/04 00:02:42;;;;;;;20.80;13.20;;;-3.70;87.50;;;;;;5066862;28;20145;-84
2020/12/04 00:05:08;;;;;;;19.98;11.82;;;-3.70;88.30;;;;;;5074758;28;20096;-83
2020/12/04 00:07:34;;;;;;;18.58;9.95;;;-3.70;87.80;;;;;;5075673;28;20036;-84
2020/12/04 00:10:00;;;;;;;18.90;10.70;;;-3.80;87.40;;;;;;5076202;28;20017;-83
2020/12/04 00:12:26;;;;;;;22.67;12.60;;;-3.80;87.60;;;;;;5076347;28;20500;-83
2020/12/04 00:14:52;;;;;;;22.77;10.63;;;-3.80;88.00;;;;;;5069446;28;20048;-84
2020/12/04 00:17:17;;;;;;;16.40;9.38;;;-3.80;88.00;;;;;;5076055;28;20031;-84
2020/12/04 00:19:43;;;;;;;21.92;11.77;;;-3.70;88.00;;;;;;5075632;28;20052;-84
2020/12/04 00:22:10;;;;;;;27.33;13.50;;;-3.80;87.80;;;;;;5075058;28;20025;-84
2020/12/04 00:24:36;;;;;;;18.70;11.90;;;-3.80;87.80;;;;;;5079375;28;20088;-83
2020/12/04 00:27:02;;;;;;;22.02;9.95;;;-3.70;88.10;;;;;;5080900;28;20025;-84
2020/12/04 00:29:29;;;;;;;26.65;14.75;;;-3.70;87.80;;;;;;5075225;28;20016;-85
2020/12/04 00:31:56;;;;;;;12.88;7.72;;;-3.80;87.80;;;;;;5074741;28;20103;-84
2020/12/04 00:34:23;;;;;;;22.83;12.98;;;-3.70;88.00;;;;;;5074465;28;20095;-84
2020/12/04 00:36:50;;;;;;;27.30;14.43;;;-3.70;87.90;;;;;;5076138;28;20025;-83
2020/12/04 00:39:16;;;;;;;25.17;12.67;;;-3.70;88.00;;;;;;5079085;28;20039;-83
2020/12/04 00:41:43;;;;;;;24.58;13.95;;;-3.70;88.00;;;;;;5082271;28;20067;-82
2020/12/04 00:44:08;;;;;;;21.93;12.50;;;-3.60;88.20;;;;;;5064528;28;20031;-82
2020/12/04 00:46:34;;;;;;;22.52;12.70;;;-3.60;88.10;;;;;;5075700;28;20021;-83
2020/12/04 00:49:00;;;;;;;26.17;13.85;;;-3.60;87.90;;;;;;5074809;28;20031;-84
2020/12/04 00:51:26;;;;;;;17.38;11.23;;;-3.60;87.80;;;;;;5075879;28;20024;-84
2020/12/04 00:53:53;;;;;;;19.10;11.98;;;-3.80;87.70;;;;;;5063572;28;20020;-83
2020/12/04 00:56:22;;;;;;;16.15;8.73;;;-3.90;88.20;;;;;;5074726;28;20103;-83
2020/12/04 00:58:51;;;;;;;16.35;9.18;;;-3.90;88.60;;;;;;5074344;28;20397;-84
2020/12/04 01:01:17;;;;;;;20.90;11.80;;;-3.90;88.60;;;;;;5070534;28;20086;-84
2020/12/04 01:03:43;;;;;;;20.98;10.45;;;-4.00;89.00;;;;;;5080373;28;20028;-81
2020/12/04 01:06:11;;;;;;;23.55;11.98;;;-4.00;89.20;;;;;;5086772;28;20025;-83
2020/12/04 01:08:38;;;;;;;22.77;11.82;;;-4.00;89.50;;;;;;5057687;28;20025;-83
2020/12/04 01:11:04;;;;;;;23.35;12.13;;;-4.00;89.60;;;;;;5075345;28;20064;-83
2020/12/04 01:13:30;;;;;;;32.88;15.10;;;-3.80;89.60;;;;;;5073619;28;20017;-83
2020/12/04 01:15:56;;;;;;;32.70;15.80;;;-3.80;89.30;;;;;;5073450;28;20039;-83
2020/12/04 01:18:21;;;;;;;22.80;13.82;;;-3.70;89.40;;;;;;5073648;28;20024;-84
2020/12/04 01:20:47;;;;;;;30.10;15.85;;;-3.70;89.00;;;;;;5062162;28;20040;-82
2020/12/04 01:23:13;;;;;;;25.77;13.60;;;-3.80;88.60;;;;;;5080970;28;20028;-82
2020/12/04 01:25:39;;;;;;;23.15;13.02;;;-3.80;88.80;;;;;;5074474;28;20089;-83
2020/12/04 01:28:05;;;;;;;30.15;12.95;;;-3.80;88.70;;;;;;5079073;28;20056;-83
2020/12/04 01:30:30;;;;;;;21.08;13.85;;;-3.80;89.00;;;;;;5052666;28;20139;-83
2020/12/04 01:32:56;;;;;;;23.75;15.10;;;-3.70;89.00;;;;;;5071453;28;20020;-82
2020/12/04 01:35:22;;;;;;;21.73;12.07;;;-3.70;88.90;;;;;;5076707;28;20028;-82
2020/12/04 01:37:48;;;;;;;26.02;13.25;;;-3.70;88.60;;;;;;5078364;28;20025;-82
2020/12/04 01:40:14;;;;;;;23.20;13.10;;;-3.70;88.60;;;;;;5061032;28;20102;-83
2020/12/04 01:42:40;;;;;;;24.40;13.98;;;-3.70;88.50;;;;;;5078437;28;20032;-83
2020/12/04 01:45:06;;;;;;;24.10;13.85;;;-3.70;88.60;;;;;;5057023;28;20020;-83
2020/12/04 01:47:32;;;;;;;22.77;14.25;;;-3.80;88.40;;;;;;5074989;28;20052;-83
2020/12/04 01:49:57;;;;;;;23.95;14.20;;;-3.80;88.90;;;;;;5074368;28;20016;-83
2020/12/04 01:52:26;;;;;;;26.67;14.45;;;-3.70;88.80;;;;;;5073885;28;20020;-83
2020/12/04 01:54:53;;;;;;;26.40;14.82;;;-3.70;88.90;;;;;;5075311;28;20027;-82
2020/12/04 01:57:22;;;;;;;23.90;14.43;;;-3.60;88.80;;;;;;5087770;28;20019;-81
2020/12/04 01:59:48;;;;;;;25.83;14.55;;;-3.60;88.10;;;;;;5077175;28;20025;-83
2020/12/04 02:02:21;;;;;;;25.45;13.70;;;-3.60;89.00;;;;;;5076379;28;20040;-83
2020/12/04 02:04:51;;;;;;;22.88;13.80;;;-3.60;88.40;;;;;;5076861;28;20031;-83
2020/12/04 02:07:25;;;;;;;24.67;15.18;;;-3.60;88.30;;;;;;5077499;28;20122;-83
2020/12/04 02:09:55;;;;;;;25.67;14.40;;;-3.50;88.50;;;;;;5079133;28;20161;-82
2020/12/04 02:12:23;;;;;;;26.27;14.93;;;-3.40;88.20;;;;;;5078236;28;20430;-84
2020/12/04 02:14:51;;;;;;;28.02;16.25;;;-3.50;88.10;;;;;;5077112;28;20017;-82
2020/12/04 02:17:27;;;;;;;24.65;14.80;;;-3.50;88.30;;;;;;5077299;28;20021;-83
2020/12/04 02:19:53;;;;;;;27.73;15.35;;;-3.50;88.40;;;;;;5077227;28;20506;-81
2020/12/04 02:22:19;;;;;;;25.10;13.88;;;-3.50;88.50;;;;;;5055997;28;20041;-84
2020/12/04 02:24:45;;;;;;;29.00;15.75;;;-3.50;88.50;;;;;;5072444;28;20025;-83
2020/12/04 02:27:14;;;;;;;32.03;13.70;;;-3.60;88.40;;;;;;5076623;28;20059;-84
2020/12/04 02:29:40;;;;;;;31.00;14.93;;;-3.50;88.70;;;;;;5077077;28;20095;-83
2020/12/04 02:32:10;;;;;;;22.95;11.63;;;-3.50;88.60;;;;;;5076857;28;20082;-84
2020/12/04 02:34:36;;;;;;;25.20;13.52;;;-3.50;88.70;;;;;;5079906;28;20051;-84
2020/12/04 02:37:03;;;;;;;25.35;14.73;;;-3.60;88.60;;;;;;5093449;28;20024;-83
2020/12/04 02:39:29;;;;;;;23.53;14.10;;;-3.60;89.00;;;;;;5097620;28;20049;-84
2020/12/04 02:41:55;;;;;;;35.75;16.42;;;-3.50;89.10;;;;;;5097930;28;20021;-82
2020/12/04 02:44:20;;;;;;;28.90;17.25;;;-3.40;89.20;;;;;;5079362;28;20551;-84
2020/12/04 02:46:47;;;;;;;30.92;16.08;;;-3.30;89.00;;;;;;5077353;28;20035;-83
2020/12/04 02:49:13;;;;;;;37.53;16.65;;;-3.30;88.70;;;;;;5063633;28;20020;-85
2020/12/04 02:51:44;;;;;;;31.67;16.33;;;-3.20;88.50;;;;;;5077900;28;20480;-85
2020/12/04 02:54:10;;;;;;;30.50;14.90;;;-3.20;88.20;;;;;;5077270;28;20016;-84
2020/12/04 02:56:36;;;;;;;29.23;17.63;;;-3.30;88.10;;;;;;5089882;28;20023;-86
2020/12/04 02:59:02;;;;;;;30.77;16.45;;;-3.30;88.00;;;;;;5086572;28;20028;-84
2020/12/04 03:01:28;;;;;;;26.48;15.90;;;-3.40;88.00;;;;;;5084659;28;20143;-83
2020/12/04 03:03:54;;;;;;;29.33;16.42;;;-3.50;88.00;;;;;;5083906;28;20025;-82
2020/12/04 03:06:20;;;;;;;31.38;17.35;;;-3.50;88.20;;;;;;5076662;28;20021;-84
2020/12/04 03:08:46;;;;;;;31.58;14.80;;;-3.40;88.50;;;;;;5076737;28;20059;-84
2020/12/04 03:11:11;;;;;;;25.95;13.82;;;-3.50;88.10;;;;;;5075709;28;20021;-85
2020/12/04 03:13:37;;;;;;;25.90;14.82;;;-3.50;88.10;;;;;;5076005;28;20025;-87
2020/12/04 03:16:03;;;;;;;27.85;16.98;;;-3.60;88.50;;;;;;5075766;28;20031;-84
2020/12/04 03:18:29;;;;;;;26.75;14.43;;;-3.50;88.70;;;;;;5082734;28;20044;-83
2020/12/04 03:20:55;;;;;;;37.10;17.05;;;-3.50;88.70;;;;;;5075227;28;20458;-84
2020/12/04 03:23:21;;;;;;;29.50;14.88;;;-3.50;88.60;;;;;;5075684;28;20024;-83
2020/12/04 03:25:48;;;;;;;27.73;13.95;;;-3.40;88.60;;;;;;5075984;28;20021;-83
2020/12/04 03:28:13;;;;;;;29.90;16.08;;;-3.40;88.50;;;;;;5075398;28;20107;-84
2020/12/04 03:30:39;;;;;;;27.40;15.85;;;-3.40;88.10;;;;;;5075782;28;20167;-83
2020/12/04 03:33:05;;;;;;;31.05;15.63;;;-3.50;88.30;;;;;;5075526;28;20016;-83
2020/12/04 03:35:31;;;;;;;25.33;14.15;;;-3.50;88.40;;;;;;5058311;28;20017;-83
2020/12/04 03:37:57;;;;;;;23.25;13.65;;;-3.40;88.60;;;;;;5061279;28;20140;-82
2020/12/04 03:40:22;;;;;;;31.40;14.30;;;-3.40;88.30;;;;;;5077708;28;20021;-85
2020/12/04 03:42:48;;;;;;;24.45;13.35;;;-3.40;88.40;;;;;;5076174;28;20063;-87
2020/12/04 03:45:14;;;;;;;23.35;12.57;;;-3.40;88.20;;;;;;5062731;28;20055;-84
2020/12/04 03:47:40;;;;;;;26.02;14.15;;;-3.50;88.00;;;;;;5081934;28;20020;-84
2020/12/04 03:50:06;;;;;;;30.60;14.23;;;-3.50;88.20;;;;;;5076185;28;20025;-85
2020/12/04 03:52:32;;;;;;;31.08;14.57;;;-3.50;88.50;;;;;;5076080;28;20016;-84
2020/12/04 03:54:58;;;;;;;20.08;11.23;;;-3.50;88.70;;;;;;5075189;28;20024;-86
2020/12/04 03:57:24;;;;;;;31.20;14.80;;;-3.40;89.20;;;;;;5076094;28;20504;-85
2020/12/04 03:59:50;;;;;;;31.85;14.68;;;-3.40;88.40;;;;;;5062031;28;20031;-85
2020/12/04 04:02:16;;;;;;;34.30;14.77;;;-3.40;88.20;;;;;;5088460;28;20024;-83
2020/12/04 04:04:42;;;;;;;27.13;14.18;;;-3.50;87.80;;;;;;5081705;28;20016;-84
2020/12/04 04:07:07;;;;;;;28.45;13.95;;;-3.50;88.00;;;;;;5054576;28;20029;-83
2020/12/04 04:09:33;;;;;;;23.13;13.43;;;-3.60;87.80;;;;;;5075345;28;20025;-85
2020/12/04 04:11:59;;;;;;;22.83;11.98;;;-3.60;87.90;;;;;;5080491;28;20026;-83
2020/12/04 04:14:25;;;;;;;26.60;14.65;;;-3.60;88.00;;;;;;5077388;28;20012;-86
2020/12/04 04:16:51;;;;;;;27.15;14.60;;;-3.60;87.90;;;;;;5076668;28;20029;-85
2020/12/04 04:19:17;;;;;;;25.95;13.93;;;-3.60;87.80;;;;;;5074667;28;20456;-86
2020/12/04 04:21:43;;;;;;;24.33;11.65;;;-3.60;88.00;;;;;;5073616;28;20045;-83
2020/12/04 04:24:09;;;;;;;26.98;15.05;;;-3.50;87.60;;;;;;5075938;28;20028;-83
2020/12/04 04:26:35;;;;;;;33.08;14.82;;;-3.60;87.30;;;;;;5074452;28;20363;-85
2020/12/04 04:29:01;;;;;;;27.02;14.32;;;-3.60;87.40;;;;;;5076230;28;20078;-86
2020/12/04 04:31:27;;;;;;;21.30;12.10;;;-3.50;87.60;;;;;;5080814;28;20068;-85
2020/12/04 04:33:53;;;;;;;22.33;14.05;;;-3.50;87.30;;;;;;5087715;28;20497;-83
2020/12/04 04:36:19;;;;;;;22.52;13.90;;;-3.50;86.80;;;;;;5079978;28;20028;-84
2020/12/04 04:38:44;;;;;;;26.80;12.40;;;-3.40;86.60;;;;;;5096752;28;20021;-84
2020/12/04 04:41:13;;;;;;;26.15;14.07;;;-3.50;86.50;;;;;;5086720;28;20147;-87
2020/12/04 04:43:39;;;;;;;25.15;11.75;;;-3.50;86.70;;;;;;5075515;28;20089;-86
2020/12/04 04:46:43;;;;;;;25.30;12.55;;;-3.40;86.70;;;;;;5075748;28;20540;-86
2020/12/04 04:49:13;;;;;;;25.42;11.13;;;-3.30;86.40;;;;;;5072997;28;20023;-84
2020/12/04 04:51:42;;;;;;;31.00;12.77;;;-3.40;86.00;;;;;;5074917;28;20373;-84
2020/12/04 04:54:10;;;;;;;25.60;12.57;;;-3.40;86.00;;;;;;5074525;28;20103;-84
2020/12/04 04:56:35;;;;;;;26.08;10.88;;;-3.40;86.20;;;;;;5075223;28;20016;-86
2020/12/04 04:59:06;;;;;;;28.08;13.38;;;-3.30;86.10;;;;;;5075363;28;20107;-85
2020/12/04 05:01:33;;;;;;;25.77;11.85;;;-3.30;85.90;;;;;;5048703;28;20040;-84
2020/12/04 05:04:02;;;;;;;21.83;10.40;;;-3.30;85.50;;;;;;5074018;28;20068;-86
2020/12/04 05:06:33;;;;;;;23.23;11.55;;;-3.30;85.30;;;;;;5065539;28;20284;-85
2020/12/04 05:08:59;;;;;;;21.15;11.40;;;-3.40;85.20;;;;;;5067843;28;20066;-83
2020/12/04 05:11:25;;;;;;;24.25;11.88;;;-3.40;85.20;;;;;;5065353;28;20056;-87
2020/12/04 05:14:10;;;;;;;24.02;10.48;;;-3.30;85.40;;;;;;5079609;28;20017;-84
2020/12/04 05:16:36;;;;;;;22.55;11.57;;;-3.30;85.00;;;;;;5075388;28;20028;-85
2020/12/04 05:19:04;;;;;;;14.30;7.97;;;-3.40;84.90;;;;;;5072031;28;20385;-85
2020/12/04 05:21:31;;;;;;;24.33;12.25;;;-3.40;84.90;;;;;;5077353;28;20025;-86
2020/12/04 05:23:59;;;;;;;;;;;-3.50;85.00;;;;;;5074205;28;20024;-84
2020/12/04 05:26:51;;;;;;;24.55;14.68;;;-3.40;85.30;;;;;;5074962;28;19911;-85
2020/12/04 05:29:19;;;;;;;23.23;11.43;;;-3.30;85.40;;;;;;5073532;28;20064;-83
2020/12/04 05:31:44;;;;;;;;;;;-3.30;85.40;;;;;;5076432;28;20362;-83
2020/12/04 05:34:22;;;;;;;19.70;9.50;;;-3.30;84.90;;;;;;5066940;28;19979;-83
2020/12/04 05:36:51;;;;;;;18.92;9.80;;;-3.30;84.80;;;;;;5078866;28;20028;-83
2020/12/04 05:39:17;;;;;;;19.95;10.70;;;-3.30;84.80;;;;;;5078541;28;20022;-86
2020/12/04 05:41:50;;;;;;;16.85;8.13;;;-3.30;84.70;;;;;;5077771;28;20448;-84
2020/12/04 05:44:18;;;;;;;25.52;10.70;;;-3.30;84.90;;;;;;5076863;28;20051;-84
2020/12/04 05:46:52;;;;;;;20.45;10.38;;;-3.30;84.50;;;;;;5057961;28;20028;-86
2020/12/04 05:49:19;;;;;;;15.90;10.60;;;-3.40;85.10;;;;;;5074175;28;20020;-85
2020/12/04 05:51:51;;;;;;;22.05;9.55;;;-3.50;84.20;;;;;;5073362;28;20165;-84
2020/12/04 05:54:18;;;;;;;19.65;10.52;;;-3.60;84.40;;;;;;5073648;28;20012;-84
2020/12/04 05:56:50;;;;;;;17.90;10.07;;;-3.70;84.60;;;;;;5075039;28;20039;-86
2020/12/04 05:59:21;;;;;;;21.48;11.32;;;-3.70;84.80;;;;;;5074674;28;20021;-84
2020/12/04 06:01:47;;;;;;;19.02;10.23;;;-3.80;85.00;;;;;;5073903;28;20036;-85
2020/12/04 06:04:18;;;;;;;30.38;13.48;;;-3.70;85.10;;;;;;5052943;28;20022;-85
2020/12/04 06:06:45;;;;;;;17.25;8.85;;;-3.70;85.30;;;;;;5068249;28;20133;-83
2020/12/04 06:09:12;;;;;;;18.77;12.02;;;-3.60;85.30;;;;;;5068348;28;20038;-84
2020/12/04 06:11:48;;;;;;;22.27;11.93;;;-3.50;85.50;;;;;;5074960;28;20028;-86
2020/12/04 06:14:16;;;;;;;23.20;10.88;;;-3.40;85.50;;;;;;5074311;28;20029;-87
2020/12/04 06:16:42;;;;;;;;;;;-3.30;85.30;;;;;;5074982;28;20020;-85
2020/12/04 06:19:31;;;;;;;27.20;13.68;;;-3.40;83.90;;;;;;5069423;28;19916;-83
2020/12/04 06:22:17;;;;;;;19.05;8.88;;;-3.50;84.40;;;;;;5083298;28;20040;-86
2020/12/04 06:24:52;;;;;;;34.83;13.15;;;-3.50;84.40;;;;;;5081229;28;20051;-85
2020/12/04 06:27:37;;;;;;;21.67;11.85;;;-3.60;84.30;;;;;;5082317;28;20458;-86
2020/12/04 06:30:08;;;;;;;16.63;8.55;;;-3.50;84.70;;;;;;5061531;28;20024;-84
2020/12/04 06:32:48;;;;;;;17.27;9.23;;;-3.60;84.30;;;;;;5074937;28;20322;-83
2020/12/04 06:35:15;;;;;;;18.15;10.75;;;-3.60;84.20;;;;;;5069964;28;20021;-85
2020/12/04 06:37:42;;;;;;;;;;;-3.60;84.20;;;;;;5077897;28;20047;-84
2020/12/04 06:40:28;;;;;;;26.48;10.55;;;-3.60;84.00;;;;;;5059270;28;19908;-84
2020/12/04 06:42:59;;;;;;;28.45;14.02;;;-3.70;84.30;;;;;;5076070;28;20036;-86
2020/12/04 06:45:48;;;;;;;23.90;13.68;;;-3.60;84.60;;;;;;5076906;28;20048;-83
2020/12/04 06:48:18;;;;;;;25.15;11.70;;;-3.50;84.60;;;;;;5089842;28;20029;-83
2020/12/04 06:50:48;;;;;;;20.63;13.38;;;-3.50;84.40;;;;;;5076960;28;20020;-84
2020/12/04 06:53:15;;;;;;;22.77;10.13;;;-3.50;84.40;;;;;;5078624;28;20368;-84
2020/12/04 06:55:42;;;;;;;24.05;12.13;;;-3.40;84.40;;;;;;5077606;28;20028;-86
2020/12/04 06:58:09;;;;;;;26.58;10.27;;;-3.40;84.90;;;;;;5078098;28;20074;-84
2020/12/04 07:00:35;;;;;;;27.27;12.15;;;-3.30;84.40;;;;;;5081553;28;20029;-83
2020/12/04 07:03:04;;;;;;;26.40;12.68;;;-3.30;83.90;;;;;;5074614;28;20046;-85
2020/12/04 07:05:31;;;;;;;19.75;10.20;;;-3.20;84.10;;;;;;5078673;28;20028;-87
2020/12/04 07:08:08;;;;;;;23.95;11.48;;;-3.10;84.00;;;;;;5066072;28;20025;-88
2020/12/04 07:10:36;;;;;;;24.20;11.77;;;-3.20;83.30;;;;;;5071935;28;20085;-87
2020/12/04 07:13:04;;;;;;;23.83;10.90;;;-3.20;83.40;;;;;;5064614;28;20033;-86
2020/12/04 07:15:31;;;;;;;18.50;10.18;;;-3.30;83.10;;;;;;5072829;28;20032;-89
2020/12/04 07:17:57;;;;;;;23.75;11.40;;;-3.30;83.20;;;;;;5090591;28;20035;-86
2020/12/04 07:20:37;;;;;;;23.17;11.20;;;-3.40;82.80;;;;;;5041632;28;20056;-87
2020/12/04 07:23:07;;;;;;;22.50;11.98;;;-3.50;83.30;;;;;;5035249;28;20269;-86
2020/12/04 07:25:33;;;;;;;23.90;11.88;;;-3.50;83.70;;;;;;5040946;28;20529;-88
2020/12/04 07:27:59;;;;;;;21.73;10.20;;;-3.40;83.90;;;;;;5038220;28;20025;-85
2020/12/04 07:30:25;;;;;;;22.70;10.05;;;-3.40;83.50;;;;;;5030669;28;20021;-87
2020/12/04 07:32:55;;;;;;;25.10;11.25;;;-3.40;83.80;;;;;;5032669;28;20104;-86
2020/12/04 07:35:22;;;;;;;25.23;12.15;;;-3.40;83.70;;;;;;5027031;28;20030;-86
2020/12/04 07:37:48;;;;;;;;;;;-3.30;83.80;;;;;;5036668;28;20100;-91
2020/12/04 07:40:15;;;;;;;21.77;11.18;;;-3.20;83.80;;;;;;5040309;28;20035;-89
2020/12/04 07:42:42;;;;;;;26.98;12.95;;;-3.20;83.40;;;;;;5043987;28;20079;-90
2020/12/04 07:45:16;;;;;;;27.08;13.20;;;-3.20;83.30;;;;;;5053799;28;20029;-91
2020/12/04 07:47:42;;;;;;;29.17;11.45;;;-3.10;83.40;;;;;;5038869;28;20044;-88
2020/12/04 07:50:13;;;;;;;23.88;11.20;;;-3.10;83.20;;;;;;5037435;28;20026;-87
2020/12/04 07:52:52;;;;;;;19.70;11.48;;;-3.00;83.00;;;;;;5038364;28;20124;-84
2020/12/04 07:55:21;;;;;;;21.25;11.75;;;-3.00;83.00;;;;;;5035130;28;20029;-87
2020/12/04 07:58:08;;;;;;;27.20;12.40;;;-3.00;83.20;;;;;;5041006;28;20463;-85
2020/12/04 08:00:35;;;;;;;28.15;13.23;;;-3.10;82.80;;;;;;5035407;28;20105;-85
2020/12/04 08:03:12;;;;;;;23.33;12.68;;;-3.20;82.70;;;;;;5038196;28;20135;-87
2020/12/04 08:05:39;;;;;;;;;;;-3.00;83.30;;;;;;5036396;28;20034;-86
2020/12/04 08:08:06;;;;;;;27.15;12.65;;;-2.90;83.30;;;;;;5036707;28;19911;-86
2020/12/04 08:10:32;;;;;;;19.90;11.32;;;-2.90;82.90;;;;;;5035971;28;20036;-84
2020/12/04 08:12:59;;;;;;;25.50;11.32;;;-2.90;82.70;;;;;;5042354;28;20097;-86
2020/12/04 08:15:25;;;;;;;24.17;13.32;;;-2.90;82.60;;;;;;5040759;28;20475;-84
2020/12/04 08:18:21;;;;;;;23.10;11.98;;;-3.00;82.70;;;;;;5035947;28;20026;-83
2020/12/04 08:20:47;;;;;;;16.88;9.57;;;-3.00;82.80;;;;;;5046341;28;20045;-85
2020/12/04 08:23:20;;;;;;;26.40;13.55;;;-3.00;82.70;;;;;;5054890;28;20039;-84
2020/12/04 08:25:46;;;;;;;30.30;14.00;;;-3.10;82.90;;;;;;5056663;28;20036;-85
2020/12/04 08:28:12;;;;;;;22.67;13.05;;;-3.00;83.20;;;;;;5056125;28;20030;-86
2020/12/04 08:30:42;;;;;;;21.35;12.82;;;-3.10;82.70;;;;;;5061734;28;20380;-89
2020/12/04 08:33:09;;;;;;;24.42;13.82;;;-3.10;83.00;;;;;;5067883;28;20096;-87
2020/12/04 08:35:42;;;;;;;22.25;12.88;;;-3.10;83.30;;;;;;5074942;28;20021;-88
2020/12/04 08:38:09;;;;;;;28.50;12.13;;;-3.20;83.00;;;;;;5064320;28;20031;-89
2020/12/04 08:40:37;;;;;;;28.88;16.55;;;-3.20;83.40;;;;;;5046501;28;20021;-88
2020/12/04 08:43:19;;;;;;;28.83;14.45;;;-3.10;84.30;;;;;;5058072;28;20132;-88
2020/12/04 08:45:47;;;;;;;30.48;14.77;;;-3.00;83.50;;;;;;5047955;28;20063;-88
2020/12/04 08:48:18;;;;;;;33.67;16.05;;;-2.90;83.40;;;;;;5066173;28;20025;-85
2020/12/04 08:50:54;;;;;;;27.13;13.82;;;-2.90;83.30;;;;;;5056553;28;20040;-86
2020/12/04 08:53:21;;;;;;;30.77;15.95;;;-2.90;83.30;;;;;;5056222;28;20043;-86
2020/12/04 08:55:49;;;;;;;28.20;14.25;;;-2.90;83.30;;;;;;5056256;28;20040;-86
2020/12/04 08:58:16;;;;;;;29.88;15.15;;;-2.80;83.50;;;;;;5060304;28;20029;-87
2020/12/04 09:00:44;;;;;;;24.30;14.20;;;-2.70;83.10;;;;;;5055514;28;20023;-88
2020/12/04 09:03:10;;;;;;;25.90;14.68;;;-2.80;83.20;;;;;;5052211;28;20060;-89
2020/12/04 09:05:36;;;;;;;25.70;14.35;;;-2.70;83.80;;;;;;5037905;28;20124;-84
2020/12/04 09:08:03;;;;;;;37.85;14.63;;;-2.70;83.10;;;;;;5050088;28;20021;-86
2020/12/04 09:10:32;;;;;;;34.63;14.95;;;-2.60;82.90;;;;;;5056654;28;20389;-86
2020/12/04 09:12:58;;;;;;;34.45;15.40;;;-2.70;83.00;;;;;;5055552;28;20028;-85
2020/12/04 09:15:26;;;;;;;21.38;11.00;;;-2.60;83.20;;;;;;5047675;28;20486;-84
2020/12/04 09:17:53;;;;;;;24.67;13.23;;;-2.60;82.80;;;;;;5059140;28;20031;-84
2020/12/04 09:20:19;;;;;;;34.10;16.23;;;-2.70;82.40;;;;;;5088552;28;20105;-86
2020/12/04 09:22:45;;;;;;;32.42;13.27;;;-2.80;82.60;;;;;;5068794;28;20025;-87
2020/12/04 09:25:13;;;;;;;25.88;14.35;;;-2.80;83.20;;;;;;5071052;28;20032;-88
2020/12/04 09:27:40;;;;;;;28.70;17.70;;;-2.90;83.10;;;;;;5076467;28;20017;-88
2020/12/04 09:30:08;;;;;;;25.63;12.70;;;-2.90;83.30;;;;;;5072095;28;20017;-88
2020/12/04 09:32:34;;;;;;;33.70;16.65;;;-2.90;83.60;;;;;;5069376;28;20388;-87
2020/12/04 09:35:00;;;;;;;22.17;12.85;;;-2.90;83.70;;;;;;5055527;28;20019;-85
2020/12/04 09:37:30;;;;;;;25.48;15.73;;;-2.80;83.50;;;;;;5072559;28;20380;-85
2020/12/04 09:40:00;;;;;;;29.48;16.80;;;-2.90;83.50;;;;;;5078356;28;20021;-88
2020/12/04 09:42:27;;;;;;;19.52;10.25;;;-2.90;84.00;;;;;;5056071;28;20029;-86
2020/12/04 09:44:54;;;;;;;26.67;14.55;;;-2.80;84.00;;;;;;5081151;28;20021;-86
2020/12/04 09:47:21;;;;;;;34.60;18.65;;;-2.90;83.60;;;;;;5085925;28;20036;-89
2020/12/04 09:49:48;;;;;;;36.17;16.50;;;-2.80;84.10;;;;;;5086119;28;20082;-87
2020/12/04 09:52:15;;;;;;;27.97;13.70;;;-2.80;83.70;;;;;;5070727;28;20120;-85
2020/12/04 09:54:42;;;;;;;29.23;16.55;;;-3.00;83.70;;;;;;5058367;28;20083;-84
2020/12/04 09:57:09;;;;;;;32.55;17.85;;;-3.00;84.20;;;;;;5072273;28;20032;-85
2020/12/04 09:59:36;;;;;;;34.90;17.40;;;-2.90;84.50;;;;;;5057677;28;20457;-86
2020/12/04 10:02:03;;;;;;;35.08;17.52;;;-2.90;84.60;;;;;;5071848;28;20075;-86
2020/12/04 10:04:29;;;;;;;26.17;15.02;;;-2.80;84.30;;;;;;5070371;28;20367;-85
2020/12/04 10:06:55;;;;;;;30.65;17.98;;;-2.70;84.30;;;;;;5068696;28;20032;-83
2020/12/04 10:09:23;;;;;;;34.05;18.42;;;-2.80;84.00;;;;;;5060223;28;20031;-85
2020/12/04 10:11:50;;;;;;;33.53;16.98;;;-2.70;84.40;;;;;;5059442;28;20024;-87
2020/12/04 10:14:17;;;;;;;32.20;16.67;;;-2.60;84.50;;;;;;5051573;28;20385;-89
2020/12/04 10:16:44;;;;;;;33.13;17.02;;;-2.60;83.70;;;;;;5063626;28;20043;-89
2020/12/04 10:19:12;;;;;;;31.98;18.00;;;-2.70;83.50;;;;;;5069488;28;20028;-90
2020/12/04 10:21:38;;;;;;;33.13;18.05;;;-2.70;83.90;;;;;;5066743;28;20033;-87
2020/12/04 10:24:06;;;;;;;32.50;19.27;;;-2.70;83.80;;;;;;5064832;28;20032;-86
2020/12/04 10:26:36;;;;;;;16.92;10.02;;;-2.70;84.00;;;;;;5051827;28;20086;-85
2020/12/04 10:29:02;;;;;;;29.95;16.25;;;-2.60;83.90;;;;;;5071398;28;20013;-85
2020/12/04 10:31:28;;;;;;;26.15;15.55;;;-2.70;84.30;;;;;;5070223;28;20028;-87
2020/12/04 10:33:54;;;;;;;35.38;20.65;;;-2.60;83.90;;;;;;5084871;28;20024;-82
2020/12/04 10:36:20;;;;;;;33.00;19.33;;;-2.70;83.70;;;;;;5071306;28;20020;-84
2020/12/04 10:38:45;;;;;;;28.80;17.83;;;-2.70;83.60;;;;;;5071190;28;20025;-88
2020/12/04 10:41:12;;;;;;;36.75;17.10;;;-2.70;83.70;;;;;;5080146;28;20048;-88
2020/12/04 10:43:38;;;;;;;33.40;19.05;;;-2.70;83.90;;;;;;5078960;28;20032;-87
2020/12/04 10:46:04;;;;;;;35.50;17.73;;;-2.60;84.10;;;;;;5071572;28;20047;-87
2020/12/04 10:48:30;;;;;;;38.10;19.40;;;-2.50;84.00;;;;;;5074022;28;20024;-87
2020/12/04 10:50:56;;;;;;;40.60;22.63;;;-2.40;84.00;;;;;;5083713;28;20028;-89
2020/12/04 10:53:26;;;;;;;31.38;15.93;;;-2.40;84.00;;;;;;5074939;28;20040;-84
2020/12/04 10:55:52;;;;;;;36.60;17.02;;;-2.30;83.80;;;;;;5068494;28;20149;-86
2020/12/04 10:58:18;;;;;;;28.02;16.45;;;-2.30;83.30;;;;;;5089117;28;20023;-86
2020/12/04 11:00:47;;;;;;;30.10;16.83;;;-2.40;83.50;;;;;;5059722;28;20111;-84
2020/12/04 11:05:42;;;;;;;38.17;18.83;;;-2.30;83.50;;;;;;5060733;28;20055;-83
2020/12/04 11:08:08;;;;;;;;;;;-2.20;83.70;;;;;;5049915;28;20024;-85
2020/12/04 11:10:35;;;;;;;28.10;17.05;;;-2.20;83.70;;;;;;5076037;28;19996;-88
2020/12/04 11:13:01;;;;;;;32.05;16.95;;;-2.10;83.50;;;;;;5065063;28;20021;-86
2020/12/04 11:15:28;;;;;;;39.80;19.40;;;-2.00;83.50;;;;;;5060536;28;20025;-86
2020/12/04 11:17:54;;;;;;;30.83;16.80;;;-2.00;83.30;;;;;;5074954;28;20017;-84
2020/12/04 11:20:24;;;;;;;29.23;16.70;;;-1.80;83.30;;;;;;5056347;28;20044;-85
2020/12/04 11:22:51;;;;;;;29.20;16.65;;;-1.80;82.60;;;;;;5073034;28;20405;-85
2020/12/04 11:25:17;;;;;;;21.95;14.43;;;-1.80;82.60;;;;;;5076153;28;20019;-87
2020/12/04 11:27:45;;;;;;;35.55;15.68;;;-1.80;82.30;;;;;;5063097;28;20089;-86
2020/12/04 11:30:13;;;;;;;27.58;15.18;;;-1.90;82.00;;;;;;5058723;28;20021;-86
2020/12/04 11:32:40;;;;;;;24.85;14.57;;;-1.90;82.30;;;;;;5044439;28;20041;-88
2020/12/04 11:35:07;;;;;;;35.28;15.13;;;-1.80;82.50;;;;;;5064765;28;20021;-89
2020/12/04 11:37:34;;;;;;;;;;;-1.90;82.10;;;;;;5057361;28;20136;-90
2020/12/04 11:40:00;;;;;;;24.58;13.45;;;-1.90;82.10;;;;;;5051191;28;19975;-89
2020/12/04 11:42:27;;;;;;;22.05;13.55;;;-2.00;82.00;;;;;;5067301;28;20060;-89
2020/12/04 11:44:53;;;;;;;;;;;-2.00;82.30;;;;;;5054764;28;20095;-90
2020/12/04 11:47:19;;;;;;;29.98;15.93;;;-2.00;82.30;;;;;;5088498;28;20385;-87
2020/12/04 11:49:45;;;;;;;31.13;16.40;;;-2.00;82.20;;;;;;5081490;28;20176;-88
2020/12/04 11:52:11;;;;;;;24.38;14.25;;;-1.90;82.30;;;;;;5081508;28;20024;-86
2020/12/04 11:54:37;;;;;;;28.83;15.48;;;-1.90;82.30;;;;;;5071618;28;20039;-88
2020/12/04 11:57:03;;;;;;;26.40;16.77;;;-1.80;82.30;;;;;;5084605;28;20173;-87
2020/12/04 11:59:29;;;;;;;25.40;14.23;;;-1.80;82.20;;;;;;5070829;28;20082;-89
2020/12/04 12:01:56;;;;;;;23.90;13.27;;;-1.70;82.20;;;;;;5074327;28;20036;-87
2020/12/04 12:04:22;;;;;;;25.85;13.60;;;-1.70;81.90;;;;;;5059023;28;20048;-85
2020/12/04 12:06:48;;;;;;;26.30;14.85;;;-1.60;81.70;;;;;;5062062;28;20082;-85
2020/12/04 12:09:14;;;;;;;28.27;16.45;;;-1.60;81.50;;;;;;5055971;28;20033;-85
2020/12/04 12:11:40;;;;;;;29.83;15.77;;;-1.60;81.40;;;;;;5049629;28;20039;-83
2020/12/04 12:14:06;;;;;;;25.42;15.05;;;-1.60;81.30;;;;;;5076059;28;20040;-83
2020/12/04 12:16:31;;;;;;;28.02;16.25;;;-1.70;81.20;;;;;;5078768;28;20107;-84
2020/12/04 12:18:57;;;;;;;30.10;16.17;;;-1.70;81.50;;;;;;5078051;28;20044;-84
2020/12/04 12:21:24;;;;;;;23.48;15.07;;;-1.70;81.60;;;;;;5085984;28;20146;-84
2020/12/04 12:23:50;;;;;;;29.80;15.77;;;-1.60;81.70;;;;;;5077976;28;20108;-83
2020/12/04 12:26:16;;;;;;;24.90;13.52;;;-1.70;81.70;;;;;;5062420;28;20454;-83
2020/12/04 12:28:42;;;;;;;26.92;14.75;;;-1.70;81.50;;;;;;5074702;28;20132;-82
2020/12/04 12:31:08;;;;;;;28.02;17.48;;;-1.60;81.60;;;;;;5076373;28;20024;-86
2020/12/04 12:33:34;;;;;;;29.73;16.13;;;-1.60;81.70;;;;;;5068386;28;20021;-83
2020/12/04 12:36:00;;;;;;;20.20;13.73;;;-1.60;81.20;;;;;;5065961;28;20035;-84